Time;durP1;ratioP1;P1;durP2;ratioP2;P2;SDS_P1;SDS_P2;PMS_P1;PMS_P2;Temp;Humidity;BMP_temperature;BMP_pressure;BME280_temperature;BME280_humidity;BME280_pressure;Samples;Min_cycle;Max_cycle;Signal;HPM_P1;HPM_P2
2021/10/24 10:12:33;;;;;;;0.93;0.32;;;;;;;;;;7372879;19;132476;-15
2021/10/24 10:15:08;;;;;;;0.30;0.30;;;;;;;;;;7365823;19;153565;-14
2021/10/24 10:17:40;;;;;;;1.20;0.30;;;;;;;;;;7366874;19;161829;-15
2021/10/24 10:20:25;;;;;;;0.30;0.30;;;;;;;;;;7365400;19;162752;-13
2021/10/24 10:23:08;;;;;;;1.17;0.50;;;;;;;;;;7366066;19;154091;-11
2021/10/24 10:25:41;;;;;;;1.08;0.40;;;;;;;;;;7365291;19;153545;-11
2021/10/24 10:28:38;;;;;;;0.40;0.40;;;;;;;;;;7366003;19;161899;-12
2021/10/24 10:31:13;;;;;;;0.47;0.47;;;;;;;;;;7366288;19;162575;-15
2021/10/24 10:33:59;;;;;;;0.38;0.38;;;;;;;;;;7367499;19;153928;-14
2021/10/24 10:36:59;;;;;;;0.52;0.52;;;;;;;;;;7367407;19;153761;-20
2021/10/24 10:39:44;;;;;;;1.05;0.60;;;;;;;;;;7366045;19;162023;-15
2021/10/24 10:42:51;;;;;;;0.40;0.40;;;;;;;;;;7366079;19;162711;-14
2021/10/24 10:45:43;;;;;;;0.30;0.30;;;;;;;;;;7365083;19;154039;-14
2021/10/24 10:48:36;;;;;;;0.40;0.40;;;;;;;;;;7367364;19;153680;-16
2021/10/24 10:51:16;;;;;;;0.40;0.40;;;;;;;;;;7365338;19;162241;-14
2021/10/24 10:54:05;;;;;;;0.90;0.47;;;;;;;;;;7365624;19;162858;-14
2021/10/24 10:56:58;;;;;;;0.65;0.40;;;;;;;;;;7365353;19;154076;-13
2021/10/24 10:59:40;;;;;;;1.23;0.60;;;;;;;;;;7366770;19;153568;-13
2021/10/24 11:02:31;;;;;;;0.98;0.43;;;;;;;;;;7363853;19;162646;-15
2021/10/24 11:05:05;;;;;;;3.65;0.80;;;;;;;;;;7364638;19;162411;-14
2021/10/24 11:07:42;;;;;;;1.35;0.50;;;;;;;;;;7366093;19;153963;-15
2021/10/24 11:10:19;;;;;;;0.50;0.50;;;;;;;;;;7365867;19;153592;-14
2021/10/24 11:12:51;;;;;;;0.30;0.30;;;;;;;;;;7344060;19;162512;-15
2021/10/24 11:15:33;;;;;;;1.02;0.40;;;;;;;;;;7335248;19;162344;-16
2021/10/24 11:18:27;;;;;;;0.40;0.40;;;;;;;;;;7335493;19;154009;-15
2021/10/24 11:20:59;;;;;;;0.50;0.50;;;;;;;;;;7336454;19;155588;-16
2021/10/24 11:23:34;;;;;;;0.50;0.50;;;;;;;;;;7336375;19;162060;-16
2021/10/24 11:26:08;;;;;;;0.40;0.40;;;;;;;;;;7336486;19;162401;-13
2021/10/24 11:28:39;;;;;;;0.68;0.50;;;;;;;;;;7331671;19;153941;-14
2021/10/24 11:31:11;;;;;;;0.40;0.40;;;;;;;;;;7330441;19;153807;-16
2021/10/24 11:33:49;;;;;;;0.35;0.35;;;;;;;;;;7330940;19;162089;-14
2021/10/24 11:36:28;;;;;;;0.40;0.40;;;;;;;;;;7332190;19;162394;-15
2021/10/24 11:39:00;;;;;;;0.40;0.40;;;;;;;;;;7332322;19;153958;-16
2021/10/24 11:41:32;;;;;;;0.40;0.40;;;;;;;;;;7334597;19;153806;-13
2021/10/24 11:44:12;;;;;;;0.40;0.40;;;;;;;;;;7332299;19;162521;-13
2021/10/24 11:46:43;;;;;;;0.57;0.57;;;;;;;;;;7332605;19;162663;-15
2021/10/24 11:49:17;;;;;;;0.50;0.50;;;;;;;;;;7332622;19;154268;-12
2021/10/24 11:51:55;;;;;;;0.50;0.50;;;;;;;;;;7336860;19;153556;-13
2021/10/24 11:54:26;;;;;;;0.40;0.40;;;;;;;;;;7335621;19;162037;-14
2021/10/24 11:57:29;;;;;;;1.17;0.32;;;;;;;;;;7333636;19;162459;-14
2021/10/24 12:00:16;;;;;;;0.60;0.50;;;;;;;;;;7332648;19;154415;-13
2021/10/24 12:02:57;;;;;;;0.60;0.38;;;;;;;;;;7332375;19;153836;-15
2021/10/24 12:05:33;;;;;;;0.40;0.40;;;;;;;;;;7334407;19;161950;-13
2021/10/24 12:08:04;;;;;;;0.40;0.40;;;;;;;;;;7335305;19;162325;-16
2021/10/24 12:10:39;;;;;;;0.40;0.40;;;;;;;;;;7330228;19;154121;-13
2021/10/24 12:13:32;;;;;;;0.40;0.40;;;;;;;;;;7332343;19;153565;-17
2021/10/24 12:16:04;;;;;;;0.30;0.30;;;;;;;;;;7334341;19;161795;-17
2021/10/24 12:18:38;;;;;;;0.40;0.40;;;;;;;;;;7332818;19;162417;-16
2021/10/24 12:21:12;;;;;;;1.10;0.40;;;;;;;;;;7330873;19;154195;-13
2021/10/24 12:23:43;;;;;;;0.80;0.38;;;;;;;;;;7331446;19;153509;-12
2021/10/24 12:26:14;;;;;;;0.68;0.43;;;;;;;;;;7330737;19;162062;-16
2021/10/24 12:28:46;;;;;;;0.32;0.32;;;;;;;;;;7331279;19;162829;-14
2021/10/24 12:31:24;;;;;;;0.50;0.50;;;;;;;;;;7331475;19;154081;-13
2021/10/24 12:33:55;;;;;;;0.45;0.45;;;;;;;;;;7331608;19;153809;-15
2021/10/24 12:36:39;;;;;;;0.40;0.40;;;;;;;;;;7331149;19;162076;-16
2021/10/24 12:39:11;;;;;;;0.57;0.57;;;;;;;;;;7330750;19;162330;-15
2021/10/24 12:41:44;;;;;;;0.52;0.52;;;;;;;;;;7330583;19;153921;-15
2021/10/24 12:44:17;;;;;;;0.40;0.40;;;;;;;;;;7332087;19;153505;-13
2021/10/24 12:46:48;;;;;;;0.40;0.40;;;;;;;;;;7334251;19;161787;-15
2021/10/24 12:49:22;;;;;;;0.40;0.40;;;;;;;;;;7330833;19;162548;-12
2021/10/24 12:52:11;;;;;;;0.50;0.40;;;;;;;;;;7330272;19;154002;-14
2021/10/24 12:54:45;;;;;;;0.75;0.40;;;;;;;;;;7331608;19;153562;-14
2021/10/24 12:57:17;;;;;;;0.40;0.40;;;;;;;;;;7332793;19;161905;-17
2021/10/24 12:59:49;;;;;;;0.40;0.40;;;;;;;;;;7333772;19;162492;-15
2021/10/24 13:02:20;;;;;;;0.40;0.40;;;;;;;;;;7328499;19;154363;-16
2021/10/24 13:04:53;;;;;;;0.40;0.40;;;;;;;;;;7330477;19;153600;-15
2021/10/24 13:07:27;;;;;;;;;;;;;;;;;;7330695;19;161751;-17
2021/10/24 13:09:58;;;;;;;0.63;0.50;;;;;;;;;;7326857;19;162808;-15
2021/10/24 13:12:29;;;;;;;1.17;0.47;;;;;;;;;;7331578;19;153960;-15
2021/10/24 13:15:00;;;;;;;0.30;0.30;;;;;;;;;;7328736;19;153772;-16
2021/10/24 13:17:32;;;;;;;0.40;0.40;;;;;;;;;;7331068;19;161779;-15
2021/10/24 13:20:04;;;;;;;0.63;0.40;;;;;;;;;;7329093;19;162467;-13
2021/10/24 13:25:22;;;;;;;1.30;0.47;;;;;;;;;;7321048;19;153534;-17
2021/10/24 13:27:54;;;;;;;0.30;0.30;;;;;;;;;;7326807;19;162469;-16
2021/10/24 13:30:28;;;;;;;0.35;0.35;;;;;;;;;;7325939;19;162557;-16
2021/10/24 13:32:59;;;;;;;0.40;0.40;;;;;;;;;;7325932;19;154003;-17
2021/10/24 13:35:31;;;;;;;0.30;0.30;;;;;;;;;;7328149;19;153832;-14
2021/10/24 13:38:05;;;;;;;0.38;0.38;;;;;;;;;;7331449;19;161847;-16
2021/10/24 13:40:37;;;;;;;0.40;0.40;;;;;;;;;;7329655;19;162562;-15
2021/10/24 13:43:09;;;;;;;0.30;0.30;;;;;;;;;;7326813;19;153975;-15
2021/10/24 13:45:42;;;;;;;0.40;0.40;;;;;;;;;;7331009;19;153533;-17
2021/10/24 13:48:14;;;;;;;0.35;0.35;;;;;;;;;;7326121;19;162037;-13
2021/10/24 13:50:45;;;;;;;0.32;0.32;;;;;;;;;;7329661;19;162427;-17
2021/10/24 13:53:19;;;;;;;0.30;0.30;;;;;;;;;;7329634;19;153999;-16
2021/10/24 13:55:50;;;;;;;0.32;0.32;;;;;;;;;;7329810;19;153613;-15
2021/10/24 13:58:23;;;;;;;0.30;0.30;;;;;;;;;;7329284;19;161875;-15
2021/10/24 14:00:55;;;;;;;0.38;0.38;;;;;;;;;;7324018;19;162373;-15
2021/10/24 14:03:27;;;;;;;0.35;0.35;;;;;;;;;;7330309;19;154634;-16
2021/10/24 14:05:58;;;;;;;0.40;0.40;;;;;;;;;;7328809;19;153654;-13
2021/10/24 14:08:32;;;;;;;0.45;0.45;;;;;;;;;;7327584;19;162046;-17
2021/10/24 14:11:03;;;;;;;0.40;0.40;;;;;;;;;;7322607;19;163733;-15
2021/10/24 14:13:35;;;;;;;0.55;0.30;;;;;;;;;;7329837;19;154017;-15
2021/10/24 14:16:08;;;;;;;0.40;0.40;;;;;;;;;;7328358;19;153744;-16
2021/10/24 14:18:40;;;;;;;0.40;0.40;;;;;;;;;;7324330;19;161853;-17
2021/10/24 14:21:14;;;;;;;0.30;0.30;;;;;;;;;;7327756;19;162914;-16
2021/10/24 14:23:49;;;;;;;0.57;0.50;;;;;;;;;;7326733;19;153970;-15
2021/10/24 14:26:22;;;;;;;0.30;0.30;;;;;;;;;;7327906;19;153517;-16
2021/10/24 14:29:00;;;;;;;0.30;0.30;;;;;;;;;;7329177;19;162088;-16
2021/10/24 14:31:33;;;;;;;0.32;0.32;;;;;;;;;;7327649;19;162435;-14
2021/10/24 14:34:05;;;;;;;0.40;0.40;;;;;;;;;;7323181;19;154026;-13
2021/10/24 14:36:38;;;;;;;;;;;;;;;;;;7325626;19;153614;-15
2021/10/24 14:39:15;;;;;;;0.40;0.40;;;;;;;;;;7325428;19;161979;-16
2021/10/24 14:41:51;;;;;;;0.30;0.30;;;;;;;;;;7321797;19;162984;-18
2021/10/24 14:44:31;;;;;;;0.30;0.30;;;;;;;;;;7326743;19;154083;-17
2021/10/24 14:47:06;;;;;;;0.30;0.30;;;;;;;;;;7329275;19;153698;-15
2021/10/24 14:49:40;;;;;;;0.20;0.20;;;;;;;;;;7333057;19;161855;-13
2021/10/24 14:52:13;;;;;;;0.35;0.35;;;;;;;;;;7331764;19;162457;-14
2021/10/24 14:54:48;;;;;;;0.40;0.40;;;;;;;;;;7335745;19;154162;-17
2021/10/24 14:57:21;;;;;;;0.52;0.40;;;;;;;;;;7332120;19;153841;-18
2021/10/24 14:59:54;;;;;;;0.52;0.40;;;;;;;;;;7332858;19;162216;-17
2021/10/24 15:02:27;;;;;;;1.10;0.32;;;;;;;;;;7332753;19;162420;-14
2021/10/24 15:05:00;;;;;;;0.40;0.40;;;;;;;;;;7328591;19;153988;-16
2021/10/24 15:07:33;;;;;;;0.32;0.32;;;;;;;;;;7330296;19;153675;-14
2021/10/24 15:10:15;;;;;;;0.32;0.32;;;;;;;;;;7333868;19;162226;-13
2021/10/24 15:12:55;;;;;;;0.95;0.20;;;;;;;;;;7331965;19;163346;-15
2021/10/24 15:15:29;;;;;;;0.40;0.40;;;;;;;;;;7333724;19;153956;-13
2021/10/24 15:18:03;;;;;;;0.82;0.35;;;;;;;;;;7331762;19;154073;-13
2021/10/24 15:23:21;;;;;;;0.40;0.40;;;;;;;;;;7333341;19;162657;-15
2021/10/24 15:25:57;;;;;;;0.70;0.32;;;;;;;;;;7334304;19;154596;-16
2021/10/24 15:28:30;;;;;;;0.40;0.40;;;;;;;;;;7330938;19;153584;-16
2021/10/24 15:31:09;;;;;;;0.40;0.40;;;;;;;;;;7330535;19;162061;-15
2021/10/24 15:33:42;;;;;;;0.75;0.30;;;;;;;;;;7332967;19;162371;-13
2021/10/24 15:36:15;;;;;;;0.40;0.40;;;;;;;;;;7334311;19;154515;-14
2021/10/24 15:38:50;;;;;;;0.65;0.40;;;;;;;;;;7330267;19;153514;-13
2021/10/24 15:41:26;;;;;;;0.52;0.50;;;;;;;;;;7332709;19;161822;-13
2021/10/24 15:43:59;;;;;;;0.47;0.40;;;;;;;;;;7331476;19;162378;-13
2021/10/24 15:46:32;;;;;;;0.30;0.30;;;;;;;;;;7331362;19;154228;-14
2021/10/24 15:49:08;;;;;;;0.40;0.40;;;;;;;;;;7331356;19;153687;-14
2021/10/24 15:51:44;;;;;;;0.57;0.40;;;;;;;;;;7333367;19;161842;-16
2021/10/24 15:54:19;;;;;;;0.30;0.30;;;;;;;;;;7333787;19;162396;-17
2021/10/24 15:56:56;;;;;;;0.57;0.50;;;;;;;;;;7333371;19;153991;-17
2021/10/24 15:59:29;;;;;;;0.32;0.30;;;;;;;;;;7331584;19;153657;-15
2021/10/24 16:02:02;;;;;;;0.30;0.30;;;;;;;;;;7330120;19;161834;-16
2021/10/24 16:04:37;;;;;;;0.40;0.40;;;;;;;;;;7330800;19;162539;-15
2021/10/24 16:07:14;;;;;;;0.38;0.38;;;;;;;;;;7333328;19;154220;-14
2021/10/24 16:09:51;;;;;;;0.30;0.30;;;;;;;;;;7333469;19;153606;-13
2021/10/24 16:12:32;;;;;;;0.30;0.30;;;;;;;;;;7331903;19;163075;-17
2021/10/24 16:15:11;;;;;;;0.40;0.38;;;;;;;;;;7331143;19;162643;-17
2021/10/24 16:17:44;;;;;;;0.43;0.30;;;;;;;;;;7333594;19;154001;-14
2021/10/24 16:20:19;;;;;;;0.30;0.30;;;;;;;;;;7330798;19;153589;-15
2021/10/24 16:22:54;;;;;;;0.30;0.30;;;;;;;;;;7330078;19;162207;-16
2021/10/24 16:25:27;;;;;;;0.30;0.30;;;;;;;;;;7328221;19;162648;-15
2021/10/24 16:28:03;;;;;;;0.30;0.30;;;;;;;;;;7330595;19;154258;-16
2021/10/24 16:30:36;;;;;;;0.40;0.32;;;;;;;;;;7330186;19;153709;-16
2021/10/24 16:33:19;;;;;;;0.30;0.30;;;;;;;;;;7329776;19;161839;-16
2021/10/24 16:36:01;;;;;;;0.30;0.30;;;;;;;;;;7330203;19;162510;-13
2021/10/24 16:38:38;;;;;;;0.30;0.30;;;;;;;;;;7330311;19;154008;-14
2021/10/24 16:41:16;;;;;;;0.37;0.37;;;;;;;;;;7334718;19;153534;-16
2021/10/24 16:43:50;;;;;;;0.40;0.30;;;;;;;;;;7330758;19;162808;-15
2021/10/24 16:46:21;;;;;;;0.30;0.30;;;;;;;;;;7331349;19;162153;-15
2021/10/24 16:48:53;;;;;;;0.95;0.30;;;;;;;;;;7328525;19;154075;-13
2021/10/24 16:51:24;;;;;;;0.40;0.40;;;;;;;;;;7329399;19;153647;-14
2021/10/24 16:53:56;;;;;;;0.35;0.35;;;;;;;;;;7331580;19;161829;-16
2021/10/24 16:56:34;;;;;;;0.30;0.30;;;;;;;;;;7332459;19;162758;-17
2021/10/24 16:59:19;;;;;;;0.35;0.35;;;;;;;;;;7329905;19;154078;-17
2021/10/24 17:01:59;;;;;;;0.30;0.30;;;;;;;;;;7331046;19;155164;-14
2021/10/24 17:04:36;;;;;;;1.15;0.40;;;;;;;;;;7328393;19;162716;-16
2021/10/24 17:07:08;;;;;;;0.50;0.40;;;;;;;;;;7328598;19;162800;-14
2021/10/24 17:09:43;;;;;;;0.77;0.30;;;;;;;;;;7328571;19;153978;-14
2021/10/24 17:12:14;;;;;;;0.30;0.30;;;;;;;;;;7325435;19;153927;-14
2021/10/24 17:14:49;;;;;;;0.35;0.35;;;;;;;;;;7330645;19;162027;-16
2021/10/24 17:17:20;;;;;;;0.30;0.30;;;;;;;;;;7333017;19;162597;-13
2021/10/24 17:19:52;;;;;;;0.30;0.30;;;;;;;;;;7327800;19;154050;-16
2021/10/24 17:22:35;;;;;;;0.33;0.33;;;;;;;;;;7331533;19;153657;-21
2021/10/24 17:25:08;;;;;;;0.30;0.30;;;;;;;;;;7326714;19;162025;-16
2021/10/24 17:27:39;;;;;;;;;;;;;;;;;;7327938;19;162401;-14
2021/10/24 17:30:13;;;;;;;0.85;0.43;;;;;;;;;;7331703;19;154076;-15
2021/10/24 17:32:45;;;;;;;0.60;0.40;;;;;;;;;;7332945;19;153539;-14
2021/10/24 17:35:18;;;;;;;0.40;0.40;;;;;;;;;;7328035;19;161840;-16
2021/10/24 17:37:49;;;;;;;;;;;;;;;;;;7332356;19;162359;-16
2021/10/24 17:40:20;;;;;;;0.73;0.40;;;;;;;;;;7331415;19;154338;-17
2021/10/24 17:42:53;;;;;;;0.25;0.25;;;;;;;;;;7330182;19;153692;-13
2021/10/24 17:45:27;;;;;;;0.30;0.30;;;;;;;;;;7330540;19;161985;-14
2021/10/24 17:47:59;;;;;;;0.30;0.30;;;;;;;;;;7331766;19;162894;-15
2021/10/24 17:50:31;;;;;;;0.30;0.30;;;;;;;;;;7327593;19;154010;-18
2021/10/24 17:53:02;;;;;;;0.55;0.25;;;;;;;;;;7328206;19;153590;-15
2021/10/24 17:55:34;;;;;;;0.22;0.22;;;;;;;;;;7329181;19;161978;-16
2021/10/24 17:58:07;;;;;;;0.30;0.30;;;;;;;;;;7325336;19;162698;-14
2021/10/24 18:00:42;;;;;;;0.30;0.30;;;;;;;;;;7325412;19;153979;-12
2021/10/24 18:03:14;;;;;;;0.30;0.30;;;;;;;;;;7329011;19;153557;-15
2021/10/24 18:05:45;;;;;;;0.30;0.30;;;;;;;;;;7326195;19;161849;-15
2021/10/24 18:08:17;;;;;;;0.30;0.30;;;;;;;;;;7326929;19;162495;-16
2021/10/24 18:10:49;;;;;;;0.20;0.20;;;;;;;;;;7327239;19;154007;-14
2021/10/24 18:13:21;;;;;;;0.30;0.30;;;;;;;;;;7328902;19;153643;-16
2021/10/24 18:15:55;;;;;;;0.50;0.30;;;;;;;;;;7328408;19;162101;-13
2021/10/24 18:18:27;;;;;;;0.20;0.20;;;;;;;;;;7328212;19;162540;-14
2021/10/24 18:20:59;;;;;;;0.30;0.30;;;;;;;;;;7329097;19;154057;-14
2021/10/24 18:23:30;;;;;;;0.30;0.30;;;;;;;;;;7335139;19;153598;-14
2021/10/24 18:26:02;;;;;;;0.40;0.40;;;;;;;;;;7333931;19;161738;-18
2021/10/24 18:28:35;;;;;;;0.20;0.20;;;;;;;;;;7336492;19;162414;-16
2021/10/24 18:31:10;;;;;;;0.30;0.30;;;;;;;;;;7335029;19;154002;-15
2021/10/24 18:33:41;;;;;;;0.10;0.10;;;;;;;;;;7334463;19;153714;-14
2021/10/24 18:36:13;;;;;;;0.30;0.30;;;;;;;;;;7338697;19;161903;-16
2021/10/24 18:38:46;;;;;;;0.30;0.30;;;;;;;;;;7334520;19;162436;-15
2021/10/24 18:41:18;;;;;;;0.25;0.25;;;;;;;;;;7335929;19;154121;-16
2021/10/24 18:43:49;;;;;;;0.30;0.30;;;;;;;;;;7336668;19;153547;-15
2021/10/24 18:46:25;;;;;;;0.30;0.30;;;;;;;;;;7335366;19;162049;-15
2021/10/24 18:49:00;;;;;;;0.28;0.28;;;;;;;;;;7335305;19;162335;-15
2021/10/24 18:51:32;;;;;;;0.20;0.20;;;;;;;;;;7334322;19;154417;-13
2021/10/24 18:54:05;;;;;;;0.20;0.20;;;;;;;;;;7332792;19;153603;-14
2021/10/24 18:56:37;;;;;;;0.47;0.20;;;;;;;;;;7333559;19;161864;-15
2021/10/24 18:59:09;;;;;;;0.30;0.30;;;;;;;;;;7333511;19;162624;-18
2021/10/24 19:01:43;;;;;;;0.80;0.28;;;;;;;;;;7333787;19;154286;-14
2021/10/24 19:04:15;;;;;;;0.30;0.30;;;;;;;;;;7333742;19;153528;-14
2021/10/24 19:06:46;;;;;;;0.40;0.40;;;;;;;;;;7331954;19;161981;-17
2021/10/24 19:09:18;;;;;;;0.30;0.30;;;;;;;;;;7333428;19;162346;-16
2021/10/24 19:11:50;;;;;;;0.30;0.30;;;;;;;;;;7330497;19;154455;-13
2021/10/24 19:14:21;;;;;;;0.30;0.30;;;;;;;;;;7333677;19;153691;-16
2021/10/24 19:16:56;;;;;;;0.30;0.30;;;;;;;;;;7334313;19;162017;-17
2021/10/24 19:19:28;;;;;;;0.30;0.30;;;;;;;;;;7334698;19;162751;-14
2021/10/24 19:21:59;;;;;;;0.30;0.30;;;;;;;;;;7336422;19;154118;-15
2021/10/24 19:24:31;;;;;;;0.30;0.30;;;;;;;;;;7330067;19;153920;-17
2021/10/24 19:27:02;;;;;;;0.20;0.20;;;;;;;;;;7332120;19;161773;-14
2021/10/24 19:29:34;;;;;;;0.32;0.32;;;;;;;;;;7333207;19;162663;-16
2021/10/24 19:32:08;;;;;;;0.40;0.40;;;;;;;;;;7334989;19;154165;-16
2021/10/24 19:34:40;;;;;;;0.70;0.30;;;;;;;;;;7334814;19;153536;-14
2021/10/24 19:37:11;;;;;;;0.90;0.30;;;;;;;;;;7333057;19;161947;-14
2021/10/24 19:39:43;;;;;;;0.65;0.30;;;;;;;;;;7333183;19;162555;-15
2021/10/24 19:42:14;;;;;;;0.20;0.20;;;;;;;;;;7333471;19;153940;-14
2021/10/24 19:44:45;;;;;;;0.20;0.20;;;;;;;;;;7333404;19;153509;-16
2021/10/24 19:47:19;;;;;;;0.73;0.20;;;;;;;;;;7331645;19;162023;-13
2021/10/24 19:49:51;;;;;;;0.35;0.22;;;;;;;;;;7336051;19;162399;-12
2021/10/24 19:52:22;;;;;;;0.38;0.20;;;;;;;;;;7331107;19;154458;-13
2021/10/24 19:54:59;;;;;;;0.30;0.30;;;;;;;;;;7336630;19;153539;-14
2021/10/24 19:57:30;;;;;;;0.20;0.20;;;;;;;;;;7331051;19;162092;-15
2021/10/24 20:00:01;;;;;;;0.52;0.20;;;;;;;;;;7333870;19;162521;-16
2021/10/24 20:02:35;;;;;;;0.30;0.30;;;;;;;;;;7336700;19;153992;-13
2021/10/24 20:05:08;;;;;;;0.30;0.30;;;;;;;;;;7331933;19;153338;-14
2021/10/24 20:07:39;;;;;;;0.23;0.23;;;;;;;;;;7330336;19;161944;-17
2021/10/24 20:10:12;;;;;;;0.30;0.30;;;;;;;;;;7331129;19;162838;-13
2021/10/24 20:12:44;;;;;;;0.20;0.20;;;;;;;;;;7332517;19;154101;-16
2021/10/24 20:15:16;;;;;;;0.30;0.30;;;;;;;;;;7333218;19;153447;-16
2021/10/24 20:17:50;;;;;;;0.23;0.23;;;;;;;;;;7329973;19;162430;-16
2021/10/24 20:20:22;;;;;;;0.20;0.20;;;;;;;;;;7334158;19;162776;-14
2021/10/24 20:22:53;;;;;;;0.30;0.30;;;;;;;;;;7333091;19;154043;-14
2021/10/24 20:25:24;;;;;;;0.32;0.32;;;;;;;;;;7333671;19;153481;-15
2021/10/24 20:27:56;;;;;;;0.52;0.30;;;;;;;;;;7331375;19;162175;-13
2021/10/24 20:30:27;;;;;;;0.65;0.65;;;;;;;;;;7331068;19;162563;-16
2021/10/24 20:33:01;;;;;;;1.25;0.50;;;;;;;;;;7333195;19;154165;-15
2021/10/24 20:35:33;;;;;;;0.70;0.70;;;;;;;;;;7335397;19;153517;-16
2021/10/24 20:38:05;;;;;;;0.60;0.60;;;;;;;;;;7331899;19;162032;-16
2021/10/24 20:40:36;;;;;;;0.60;0.60;;;;;;;;;;7329738;19;162382;-14
2021/10/24 20:43:08;;;;;;;0.85;0.50;;;;;;;;;;7331540;19;154052;-16
2021/10/24 20:45:40;;;;;;;0.45;0.45;;;;;;;;;;7329756;19;153790;-13
2021/10/24 20:48:14;;;;;;;4.10;0.90;;;;;;;;;;7332754;19;161740;-15
2021/10/24 20:50:45;;;;;;;0.40;0.40;;;;;;;;;;7333966;19;162510;-14
2021/10/24 20:53:20;;;;;;;0.50;0.50;;;;;;;;;;7332333;19;154065;-17
2021/10/24 20:55:51;;;;;;;0.52;0.52;;;;;;;;;;7331768;19;153978;-16
2021/10/24 20:58:23;;;;;;;0.50;0.50;;;;;;;;;;7332898;19;161853;-15
2021/10/24 21:00:55;;;;;;;0.40;0.40;;;;;;;;;;7330334;19;162693;-17
2021/10/24 21:03:29;;;;;;;0.65;0.50;;;;;;;;;;7333501;19;154218;-15
2021/10/24 21:06:02;;;;;;;0.75;0.50;;;;;;;;;;7331765;19;153596;-15
2021/10/24 21:08:34;;;;;;;0.57;0.57;;;;;;;;;;7330948;19;161980;-15
2021/10/24 21:11:05;;;;;;;0.50;0.50;;;;;;;;;;7329594;19;162406;-14
2021/10/24 21:13:37;;;;;;;0.50;0.50;;;;;;;;;;7333871;19;154145;-17
2021/10/24 21:16:09;;;;;;;0.43;0.43;;;;;;;;;;7332050;19;153544;-15
2021/10/24 21:18:43;;;;;;;2.40;0.60;;;;;;;;;;7330217;19;161755;-14
2021/10/24 21:21:14;;;;;;;0.90;0.60;;;;;;;;;;7333138;19;162375;-11
2021/10/24 21:23:46;;;;;;;0.50;0.50;;;;;;;;;;7333701;19;154028;-12
2021/10/24 21:26:17;;;;;;;0.40;0.40;;;;;;;;;;7330275;19;153546;-15
2021/10/24 21:28:48;;;;;;;0.50;0.50;;;;;;;;;;7328007;19;161751;-13
2021/10/24 21:31:19;;;;;;;0.40;0.40;;;;;;;;;;7331103;19;162531;-13
2021/10/24 21:33:56;;;;;;;0.40;0.40;;;;;;;;;;7333610;19;154071;-14
2021/10/24 21:36:27;;;;;;;0.60;0.60;;;;;;;;;;7329758;19;153530;-13
2021/10/24 21:38:59;;;;;;;1.75;0.40;;;;;;;;;;7329368;19;162509;-14
2021/10/24 21:41:30;;;;;;;0.40;0.40;;;;;;;;;;7328360;19;162505;-15
2021/10/24 21:44:01;;;;;;;0.70;0.47;;;;;;;;;;7329926;19;154107;-14
2021/10/24 21:46:33;;;;;;;0.40;0.40;;;;;;;;;;7328477;19;153628;-13
2021/10/24 21:49:07;;;;;;;0.40;0.40;;;;;;;;;;7327352;19;162243;-14
2021/10/24 21:51:39;;;;;;;0.43;0.43;;;;;;;;;;7329058;19;162716;-13
2021/10/24 21:54:10;;;;;;;0.68;0.60;;;;;;;;;;7333340;19;154240;-13
2021/10/24 21:56:43;;;;;;;0.50;0.50;;;;;;;;;;7328503;19;153617;-14
2021/10/24 21:59:14;;;;;;;;;;;;;;;;;;7329508;19;161797;-15
2021/10/24 22:01:45;;;;;;;0.40;0.40;;;;;;;;;;7327920;19;162516;-13
2021/10/24 22:04:19;;;;;;;0.30;0.30;;;;;;;;;;7330471;19;154310;-11
2021/10/24 22:06:51;;;;;;;0.40;0.40;;;;;;;;;;7332652;19;153638;-15
2021/10/24 22:09:23;;;;;;;0.50;0.50;;;;;;;;;;7329581;19;162051;-15
2021/10/24 22:11:54;;;;;;;0.52;0.40;;;;;;;;;;7328448;19;162411;-14
2021/10/24 22:14:28;;;;;;;0.40;0.40;;;;;;;;;;7330071;19;154090;-14
2021/10/24 22:17:00;;;;;;;0.40;0.40;;;;;;;;;;7329525;19;153476;-14
2021/10/24 22:19:34;;;;;;;1.15;0.57;;;;;;;;;;7331362;19;161941;-15
2021/10/24 22:22:06;;;;;;;0.40;0.40;;;;;;;;;;7331230;19;162450;-18
2021/10/24 22:24:37;;;;;;;0.57;0.57;;;;;;;;;;7332055;19;154160;-14
2021/10/24 22:27:09;;;;;;;0.57;0.50;;;;;;;;;;7329183;19;153505;-17
2021/10/24 22:29:41;;;;;;;0.63;0.50;;;;;;;;;;7329319;19;161840;-16
2021/10/24 22:32:12;;;;;;;0.40;0.40;;;;;;;;;;7329314;19;162551;-14
2021/10/24 22:34:46;;;;;;;0.40;0.40;;;;;;;;;;7331533;19;154292;-14
2021/10/24 22:37:17;;;;;;;1.08;0.50;;;;;;;;;;7331290;19;153517;-13
2021/10/24 22:39:49;;;;;;;0.55;0.40;;;;;;;;;;7330700;19;161974;-17
2021/10/24 22:42:20;;;;;;;0.40;0.40;;;;;;;;;;7330770;19;162553;-13
2021/10/24 22:44:52;;;;;;;0.40;0.40;;;;;;;;;;7331157;19;154020;-17
2021/10/24 22:47:24;;;;;;;0.50;0.50;;;;;;;;;;7326513;19;153655;-14
2021/10/24 22:49:58;;;;;;;0.40;0.40;;;;;;;;;;7328505;19;161735;-16
2021/10/24 22:52:30;;;;;;;0.40;0.40;;;;;;;;;;7330063;19;162384;-16
2021/10/24 22:55:01;;;;;;;0.40;0.40;;;;;;;;;;7331029;19;153978;-17
2021/10/24 22:57:32;;;;;;;1.65;0.50;;;;;;;;;;7330114;19;153562;-16
2021/10/24 23:00:05;;;;;;;0.40;0.40;;;;;;;;;;7329793;19;162161;-14
2021/10/24 23:02:38;;;;;;;0.60;0.60;;;;;;;;;;7330391;19;162522;-13
2021/10/24 23:05:12;;;;;;;0.47;0.47;;;;;;;;;;7329869;19;154057;-17
2021/10/24 23:07:43;;;;;;;0.43;0.43;;;;;;;;;;7331226;19;153509;-15
2021/10/24 23:10:15;;;;;;;0.85;0.30;;;;;;;;;;7334788;19;161800;-17
2021/10/24 23:12:46;;;;;;;0.40;0.40;;;;;;;;;;7335644;19;162646;-14
2021/10/24 23:15:17;;;;;;;1.08;0.47;;;;;;;;;;7338003;19;153985;-15
2021/10/24 23:17:48;;;;;;;0.65;0.40;;;;;;;;;;7332621;19;153512;-16
2021/10/24 23:20:23;;;;;;;0.52;0.38;;;;;;;;;;7337795;19;161953;-13
2021/10/24 23:22:55;;;;;;;0.60;0.35;;;;;;;;;;7333350;19;162451;-14
2021/10/24 23:25:26;;;;;;;0.60;0.40;;;;;;;;;;7334000;19;154163;-15
2021/10/24 23:27:57;;;;;;;0.90;0.43;;;;;;;;;;7333756;19;153460;-15
2021/10/24 23:30:29;;;;;;;0.75;0.40;;;;;;;;;;7333359;19;161933;-13
2021/10/24 23:33:01;;;;;;;0.40;0.40;;;;;;;;;;7337627;19;162404;-18
2021/10/24 23:35:34;;;;;;;0.40;0.40;;;;;;;;;;7333379;19;154151;-13
2021/10/24 23:38:06;;;;;;;0.38;0.38;;;;;;;;;;7335235;19;153527;-15
2021/10/24 23:40:37;;;;;;;0.77;0.50;;;;;;;;;;7333178;19;162051;-16
2021/10/24 23:43:08;;;;;;;0.40;0.40;;;;;;;;;;7333157;19;162446;-17
2021/10/24 23:45:40;;;;;;;0.40;0.40;;;;;;;;;;7333247;19;154081;-17
2021/10/24 23:48:12;;;;;;;0.30;0.30;;;;;;;;;;7333771;19;153595;-15
2021/10/24 23:50:45;;;;;;;0.40;0.40;;;;;;;;;;7335583;19;161825;-16
2021/10/24 23:53:17;;;;;;;0.40;0.40;;;;;;;;;;7332466;19;162389;-17
2021/10/24 23:55:48;;;;;;;0.40;0.40;;;;;;;;;;7335993;19;154001;-13
2021/10/24 23:58:19;;;;;;;0.50;0.50;;;;;;;;;;7329738;19;153558;-15
